Bear River City, Utah
Current Conditions -  °F | °C
As of 4:15 AM on Sunday 21 Dec 2014 (Local Time) from KBMC Reporting Station
Overcast Overcast  
Wind Chill: 33°   Ceiling: 1900
Heat Index: 40°   Visibility: 7mi
Dew Point: 36°   Wind: 12mph
Humidity: 85%   Direction: 190°S
Pressure: 29.99"   Gusts: NA
Location:  41.61°N, 112.13°W
Report Text: KBMC 211115Z AUTO 19010KT 7SM OVC019 04/02 A2999 RMK AO1 T00430020
Loading
Personal Weather Stations






























Interactive Weather Map New forecast layout! Learn more

10-Day Weather Forecast

Advertisements
Track Severe Weather on mobile